LBGO

Gorna Oryahovitsa Airport

Airport
ICAO code
LBGO
IATA Code
GOZ
Summary
ICAO Region
EUR
ICAO Territory
Location

Veliko Tarnovo, Veliko Tarnovo Province

Serving
Veliko Tarnovo
Elevation
280 ft
Coordinates
43° 9' 5" N , 25° 42' 46" E
KCC
Metar
Observation
LBGO 082030Z AUTO 28003KT 1200 R09/1900U BR VV002 06/06 Q1015
Station
Gorna Orechovista
Date/Time
2022-12-08 20:30:00
Wind direction
280°
Wind speed
03 kts
Lowest cloud amount
n/a
Temperature
9°C
Dew point
19°C
Humidity
191%
QNH
1015 hPa
Weather condition
n/a

Gorna Oryahovitsa Airport is an international airport near Veliko Tarnovo, Bulgaria. It is used predominantly for cargo.

Climatology

Humid continental climate (Köppen climate classification Dfb)

Runways

Designator Length Width Surface Rops
10/28 2450 45 CON No/No

Airport map

Aerial View

SKYbrary Partners:

Safety knowledge contributed by: